sensor_id;sensor_type;location;lat;lon;timestamp;temperature;humidity
3994;DHT22;2011;48.238;13.948;2023-06-10T00:01:39;18.00;99.90
3994;DHT22;2011;48.238;13.948;2023-06-10T00:04:06;18.00;99.90
3994;DHT22;2011;48.238;13.948;2023-06-10T00:06:33;18.00;99.90
3994;DHT22;2011;48.238;13.948;2023-06-10T00:09:03;18.00;99.90
3994;DHT22;2011;48.238;13.948;2023-06-10T00:11:31;17.90;99.90
3994;DHT22;2011;48.238;13.948;2023-06-10T00:13:59;17.90;99.90
3994;DHT22;2011;48.238;13.948;2023-06-10T00:16:26;17.80;99.90
3994;DHT22;2011;48.238;13.948;2023-06-10T00:18:54;17.80;99.90
3994;DHT22;2011;48.238;13.948;2023-06-10T00:21:27;17.80;99.90
3994;DHT22;2011;48.238;13.948;2023-06-10T00:23:54;17.80;99.90
3994;DHT22;2011;48.238;13.948;2023-06-10T00:26:22;17.80;99.90
3994;DHT22;2011;48.238;13.948;2023-06-10T00:28:49;17.70;99.90
3994;DHT22;2011;48.238;13.948;2023-06-10T00:31:16;17.70;99.90
3994;DHT22;2011;48.238;13.948;2023-06-10T00:33:43;17.70;99.90
3994;DHT22;2011;48.238;13.948;2023-06-10T00:36:11;17.70;99.90
3994;DHT22;2011;48.238;13.948;2023-06-10T00:38:38;17.70;99.90
3994;DHT22;2011;48.238;13.948;2023-06-10T00:41:06;17.70;99.90
3994;DHT22;2011;48.238;13.948;2023-06-10T00:43:33;17.60;99.90
3994;DHT22;2011;48.238;13.948;2023-06-10T00:46:01;17.50;99.90
3994;DHT22;2011;48.238;13.948;2023-06-10T00:48:28;17.50;99.90
3994;DHT22;2011;48.238;13.948;2023-06-10T00:50:55;17.40;99.90
3994;DHT22;2011;48.238;13.948;2023-06-10T00:53:25;17.40;99.90
3994;DHT22;2011;48.238;13.948;2023-06-10T00:55:53;17.40;99.90
3994;DHT22;2011;48.238;13.948;2023-06-10T00:58:20;17.40;99.90
3994;DHT22;2011;48.238;13.948;2023-06-10T01:00:48;17.40;99.90
3994;DHT22;2011;48.238;13.948;2023-06-10T01:03:15;17.30;99.90
3994;DHT22;2011;48.238;13.948;2023-06-10T01:05:42;17.30;99.90
3994;DHT22;2011;48.238;13.948;2023-06-10T01:08:15;17.30;99.90
3994;DHT22;2011;48.238;13.948;2023-06-10T01:10:51;17.30;99.90
3994;DHT22;2011;48.238;13.948;2023-06-10T01:13:20;17.30;99.90
3994;DHT22;2011;48.238;13.948;2023-06-10T01:15:49;17.30;99.90
3994;DHT22;2011;48.238;13.948;2023-06-10T01:18:17;17.20;99.90
3994;DHT22;2011;48.238;13.948;2023-06-10T01:20:44;17.20;99.90
3994;DHT22;2011;48.238;13.948;2023-06-10T01:23:13;17.10;99.90
3994;DHT22;2011;48.238;13.948;2023-06-10T01:25:43;17.00;99.90
3994;DHT22;2011;48.238;13.948;2023-06-10T01:28:15;17.00;99.90
3994;DHT22;2011;48.238;13.948;2023-06-10T01:30:48;17.00;99.90
3994;DHT22;2011;48.238;13.948;2023-06-10T01:33:21;17.00;99.90
3994;DHT22;2011;48.238;13.948;2023-06-10T01:35:53;17.00;99.90
3994;DHT22;2011;48.238;13.948;2023-06-10T01:38:22;17.00;99.90
3994;DHT22;2011;48.238;13.948;2023-06-10T01:40:52;17.00;99.90
3994;DHT22;2011;48.238;13.948;2023-06-10T01:43:20;17.00;99.90
3994;DHT22;2011;48.238;13.948;2023-06-10T01:45:47;17.00;99.90
3994;DHT22;2011;48.238;13.948;2023-06-10T01:48:14;17.00;99.90
3994;DHT22;2011;48.238;13.948;2023-06-10T01:50:41;17.00;99.90
3994;DHT22;2011;48.238;13.948;2023-06-10T01:53:09;16.90;99.90
3994;DHT22;2011;48.238;13.948;2023-06-10T01:55:38;16.90;99.90
3994;DHT22;2011;48.238;13.948;2023-06-10T01:58:04;16.80;99.90
3994;DHT22;2011;48.238;13.948;2023-06-10T02:00:32;16.80;99.90
3994;DHT22;2011;48.238;13.948;2023-06-10T02:02:59;16.80;99.90
3994;DHT22;2011;48.238;13.948;2023-06-10T02:05:26;16.80;99.90
3994;DHT22;2011;48.238;13.948;2023-06-10T02:07:53;16.70;99.90
3994;DHT22;2011;48.238;13.948;2023-06-10T02:10:20;16.70;99.90
3994;DHT22;2011;48.238;13.948;2023-06-10T02:12:48;16.70;99.90
3994;DHT22;2011;48.238;13.948;2023-06-10T02:15:15;16.70;99.90
3994;DHT22;2011;48.238;13.948;2023-06-10T02:17:42;16.60;99.90
3994;DHT22;2011;48.238;13.948;2023-06-10T02:20:11;16.70;99.90
3994;DHT22;2011;48.238;13.948;2023-06-10T02:22:39;16.60;99.90
3994;DHT22;2011;48.238;13.948;2023-06-10T02:25:07;16.60;99.90
3994;DHT22;2011;48.238;13.948;2023-06-10T02:27:34;16.60;99.90
3994;DHT22;2011;48.238;13.948;2023-06-10T02:30:03;16.60;99.90
3994;DHT22;2011;48.238;13.948;2023-06-10T02:32:30;16.60;99.90
3994;DHT22;2011;48.238;13.948;2023-06-10T02:34:57;16.60;99.90
3994;DHT22;2011;48.238;13.948;2023-06-10T02:37:25;16.60;99.90
3994;DHT22;2011;48.238;13.948;2023-06-10T02:39:52;16.60;99.90
3994;DHT22;2011;48.238;13.948;2023-06-10T02:42:19;16.60;99.90
3994;DHT22;2011;48.238;13.948;2023-06-10T02:44:46;16.50;99.90
3994;DHT22;2011;48.238;13.948;2023-06-10T02:47:15;16.50;99.90
3994;DHT22;2011;48.238;13.948;2023-06-10T02:49:42;16.50;99.90
3994;DHT22;2011;48.238;13.948;2023-06-10T02:52:09;16.40;99.90
3994;DHT22;2011;48.238;13.948;2023-06-10T02:54:37;16.40;99.90
3994;DHT22;2011;48.238;13.948;2023-06-10T02:57:04;16.30;99.90
3994;DHT22;2011;48.238;13.948;2023-06-10T02:59:33;16.30;99.90
3994;DHT22;2011;48.238;13.948;2023-06-10T03:02:00;16.20;99.90
3994;DHT22;2011;48.238;13.948;2023-06-10T03:04:29;16.20;99.90
3994;DHT22;2011;48.238;13.948;2023-06-10T03:06:56;16.10;99.90
3994;DHT22;2011;48.238;13.948;2023-06-10T03:09:23;16.00;99.90
3994;DHT22;2011;48.238;13.948;2023-06-10T03:11:50;16.00;99.90
3994;DHT22;2011;48.238;13.948;2023-06-10T03:14:17;15.90;99.90
3994;DHT22;2011;48.238;13.948;2023-06-10T03:16:44;15.90;99.90
3994;DHT22;2011;48.238;13.948;2023-06-10T03:19:11;15.80;99.90
3994;DHT22;2011;48.238;13.948;2023-06-10T03:21:44;15.80;99.90
3994;DHT22;2011;48.238;13.948;2023-06-10T03:24:11;15.80;99.90
3994;DHT22;2011;48.238;13.948;2023-06-10T03:26:38;15.90;99.90
3994;DHT22;2011;48.238;13.948;2023-06-10T03:29:05;16.00;99.90
3994;DHT22;2011;48.238;13.948;2023-06-10T03:31:32;16.00;99.90
3994;DHT22;2011;48.238;13.948;2023-06-10T03:34:00;16.00;99.90
3994;DHT22;2011;48.238;13.948;2023-06-10T03:36:27;16.00;99.90
3994;DHT22;2011;48.238;13.948;2023-06-10T03:38:57;16.00;99.90
3994;DHT22;2011;48.238;13.948;2023-06-10T03:41:24;16.10;99.90
3994;DHT22;2011;48.238;13.948;2023-06-10T03:43:51;16.10;99.90
3994;DHT22;2011;48.238;13.948;2023-06-10T03:46:18;16.10;99.90
3994;DHT22;2011;48.238;13.948;2023-06-10T03:48:45;16.10;99.90
3994;DHT22;2011;48.238;13.948;2023-06-10T03:51:12;16.10;99.90
3994;DHT22;2011;48.238;13.948;2023-06-10T03:53:39;16.10;99.90
3994;DHT22;2011;48.238;13.948;2023-06-10T03:56:07;16.10;99.90
3994;DHT22;2011;48.238;13.948;2023-06-10T03:58:34;16.10;99.90
3994;DHT22;2011;48.238;13.948;2023-06-10T04:01:01;16.10;99.90
3994;DHT22;2011;48.238;13.948;2023-06-10T04:03:28;16.10;99.90
3994;DHT22;2011;48.238;13.948;2023-06-10T04:05:55;16.10;99.90
3994;DHT22;2011;48.238;13.948;2023-06-10T04:08:22;16.00;99.90
3994;DHT22;2011;48.238;13.948;2023-06-10T04:10:49;16.00;99.90
3994;DHT22;2011;48.238;13.948;2023-06-10T04:13:18;16.00;99.90
3994;DHT22;2011;48.238;13.948;2023-06-10T04:15:46;16.00;99.90
3994;DHT22;2011;48.238;13.948;2023-06-10T04:18:13;15.90;99.90
3994;DHT22;2011;48.238;13.948;2023-06-10T04:20:40;15.90;99.90
3994;DHT22;2011;48.238;13.948;2023-06-10T04:23:07;16.00;99.90
3994;DHT22;2011;48.238;13.948;2023-06-10T04:25:34;16.00;99.90
3994;DHT22;2011;48.238;13.948;2023-06-10T04:28:01;16.00;99.90
3994;DHT22;2011;48.238;13.948;2023-06-10T04:30:30;16.00;99.90
3994;DHT22;2011;48.238;13.948;2023-06-10T04:32:57;16.00;99.90
3994;DHT22;2011;48.238;13.948;2023-06-10T04:35:24;16.00;99.90
3994;DHT22;2011;48.238;13.948;2023-06-10T04:37:52;16.10;99.90
3994;DHT22;2011;48.238;13.948;2023-06-10T04:40:19;16.20;99.90
3994;DHT22;2011;48.238;13.948;2023-06-10T04:42:46;16.20;99.90
3994;DHT22;2011;48.238;13.948;2023-06-10T04:45:13;16.30;99.90
3994;DHT22;2011;48.238;13.948;2023-06-10T04:47:41;16.30;99.90
3994;DHT22;2011;48.238;13.948;2023-06-10T04:50:09;16.40;99.90
3994;DHT22;2011;48.238;13.948;2023-06-10T04:52:36;16.50;99.90
3994;DHT22;2011;48.238;13.948;2023-06-10T04:55:04;16.60;99.90
3994;DHT22;2011;48.238;13.948;2023-06-10T04:57:31;16.70;99.90
3994;DHT22;2011;48.238;13.948;2023-06-10T04:59:58;16.80;99.90
3994;DHT22;2011;48.238;13.948;2023-06-10T05:02:25;17.00;99.90
3994;DHT22;2011;48.238;13.948;2023-06-10T05:04:54;17.00;99.90
3994;DHT22;2011;48.238;13.948;2023-06-10T05:07:22;17.20;99.90
3994;DHT22;2011;48.238;13.948;2023-06-10T05:09:49;17.30;99.90
3994;DHT22;2011;48.238;13.948;2023-06-10T05:12:16;17.40;99.90
3994;DHT22;2011;48.238;13.948;2023-06-10T05:14:43;17.50;99.90
3994;DHT22;2011;48.238;13.948;2023-06-10T05:17:11;17.70;99.90
3994;DHT22;2011;48.238;13.948;2023-06-10T05:19:39;17.80;99.90
3994;DHT22;2011;48.238;13.948;2023-06-10T05:22:08;17.90;99.90
3994;DHT22;2011;48.238;13.948;2023-06-10T05:24:35;18.00;99.90
3994;DHT22;2011;48.238;13.948;2023-06-10T05:27:02;18.10;99.90
3994;DHT22;2011;48.238;13.948;2023-06-10T05:29:30;18.30;99.90
3994;DHT22;2011;48.238;13.948;2023-06-10T05:31:57;18.40;99.90
3994;DHT22;2011;48.238;13.948;2023-06-10T05:34:28;18.50;99.90
3994;DHT22;2011;48.238;13.948;2023-06-10T05:36:55;18.60;99.90
3994;DHT22;2011;48.238;13.948;2023-06-10T05:39:24;18.80;99.90
3994;DHT22;2011;48.238;13.948;2023-06-10T05:41:51;18.90;99.90
3994;DHT22;2011;48.238;13.948;2023-06-10T05:44:18;18.90;99.90
3994;DHT22;2011;48.238;13.948;2023-06-10T05:46:45;18.70;99.90
3994;DHT22;2011;48.238;13.948;2023-06-10T05:49:12;18.70;99.90
3994;DHT22;2011;48.238;13.948;2023-06-10T05:51:39;18.70;99.90
3994;DHT22;2011;48.238;13.948;2023-06-10T05:54:06;18.80;99.90
3994;DHT22;2011;48.238;13.948;2023-06-10T05:56:34;18.70;99.90
3994;DHT22;2011;48.238;13.948;2023-06-10T05:59:01;18.60;99.90
3994;DHT22;2011;48.238;13.948;2023-06-10T06:01:28;18.50;99.90
3994;DHT22;2011;48.238;13.948;2023-06-10T06:03:56;18.50;99.90
3994;DHT22;2011;48.238;13.948;2023-06-10T06:06:23;18.40;99.90
3994;DHT22;2011;48.238;13.948;2023-06-10T06:08:50;18.30;99.90
3994;DHT22;2011;48.238;13.948;2023-06-10T06:11:17;18.30;99.90
3994;DHT22;2011;48.238;13.948;2023-06-10T06:13:45;18.30;99.90
3994;DHT22;2011;48.238;13.948;2023-06-10T06:16:13;18.30;99.90
3994;DHT22;2011;48.238;13.948;2023-06-10T06:18:40;18.20;99.90
3994;DHT22;2011;48.238;13.948;2023-06-10T06:21:08;18.20;99.90
3994;DHT22;2011;48.238;13.948;2023-06-10T06:23:35;18.20;99.90
3994;DHT22;2011;48.238;13.948;2023-06-10T06:26:02;18.30;99.90
3994;DHT22;2011;48.238;13.948;2023-06-10T06:28:29;18.30;99.90
3994;DHT22;2011;48.238;13.948;2023-06-10T06:30:58;18.50;99.90
3994;DHT22;2011;48.238;13.948;2023-06-10T06:33:25;18.50;99.90
3994;DHT22;2011;48.238;13.948;2023-06-10T06:35:52;18.60;99.90
3994;DHT22;2011;48.238;13.948;2023-06-10T06:38:19;18.80;99.90
3994;DHT22;2011;48.238;13.948;2023-06-10T06:40:46;18.90;99.90
3994;DHT22;2011;48.238;13.948;2023-06-10T06:43:13;19.00;99.90
3994;DHT22;2011;48.238;13.948;2023-06-10T06:45:40;19.10;99.90
3994;DHT22;2011;48.238;13.948;2023-06-10T06:48:08;19.20;99.90
3994;DHT22;2011;48.238;13.948;2023-06-10T06:50:35;19.30;99.90
3994;DHT22;2011;48.238;13.948;2023-06-10T06:53:02;19.40;99.90
3994;DHT22;2011;48.238;13.948;2023-06-10T06:55:29;19.50;99.90
3994;DHT22;2011;48.238;13.948;2023-06-10T06:57:56;19.60;99.90
3994;DHT22;2011;48.238;13.948;2023-06-10T07:00:24;19.70;99.90
3994;DHT22;2011;48.238;13.948;2023-06-10T07:02:51;19.80;99.90
3994;DHT22;2011;48.238;13.948;2023-06-10T07:05:19;19.90;99.90
3994;DHT22;2011;48.238;13.948;2023-06-10T07:07:46;19.90;99.90
3994;DHT22;2011;48.238;13.948;2023-06-10T07:10:13;20.00;99.90
3994;DHT22;2011;48.238;13.948;2023-06-10T07:12:41;20.10;99.90
3994;DHT22;2011;48.238;13.948;2023-06-10T07:15:08;20.20;99.90
3994;DHT22;2011;48.238;13.948;2023-06-10T07:17:35;20.40;99.90
3994;DHT22;2011;48.238;13.948;2023-06-10T07:20:03;20.50;99.90
3994;DHT22;2011;48.238;13.948;2023-06-10T07:22:31;20.50;99.90
3994;DHT22;2011;48.238;13.948;2023-06-10T07:24:58;20.60;99.90
3994;DHT22;2011;48.238;13.948;2023-06-10T07:27:25;20.70;99.90
3994;DHT22;2011;48.238;13.948;2023-06-10T07:29:52;20.80;99.90
3994;DHT22;2011;48.238;13.948;2023-06-10T07:32:20;20.90;99.90
3994;DHT22;2011;48.238;13.948;2023-06-10T07:34:49;21.00;99.90
3994;DHT22;2011;48.238;13.948;2023-06-10T07:37:16;21.00;99.90
3994;DHT22;2011;48.238;13.948;2023-06-10T07:39:46;21.10;99.90
3994;DHT22;2011;48.238;13.948;2023-06-10T07:42:13;21.20;99.90
3994;DHT22;2011;48.238;13.948;2023-06-10T07:44:40;21.40;99.90
3994;DHT22;2011;48.238;13.948;2023-06-10T07:47:07;21.60;99.90
3994;DHT22;2011;48.238;13.948;2023-06-10T07:49:34;21.70;99.90
3994;DHT22;2011;48.238;13.948;2023-06-10T07:52:01;21.90;99.90
3994;DHT22;2011;48.238;13.948;2023-06-10T07:54:28;21.90;99.90
3994;DHT22;2011;48.238;13.948;2023-06-10T07:56:56;21.90;99.90
3994;DHT22;2011;48.238;13.948;2023-06-10T07:59:23;21.90;99.90
3994;DHT22;2011;48.238;13.948;2023-06-10T08:01:51;21.90;99.90
3994;DHT22;2011;48.238;13.948;2023-06-10T08:04:18;21.90;99.90
3994;DHT22;2011;48.238;13.948;2023-06-10T08:06:45;21.70;99.90
3994;DHT22;2011;48.238;13.948;2023-06-10T08:09:12;21.70;99.90
3994;DHT22;2011;48.238;13.948;2023-06-10T08:11:39;21.80;99.90
3994;DHT22;2011;48.238;13.948;2023-06-10T08:14:07;22.00;99.90
3994;DHT22;2011;48.238;13.948;2023-06-10T08:16:34;22.10;99.90
3994;DHT22;2011;48.238;13.948;2023-06-10T08:19:01;22.30;99.90
3994;DHT22;2011;48.238;13.948;2023-06-10T08:21:28;22.40;99.90
3994;DHT22;2011;48.238;13.948;2023-06-10T08:23:55;22.40;99.90
3994;DHT22;2011;48.238;13.948;2023-06-10T08:26:22;22.30;99.90
3994;DHT22;2011;48.238;13.948;2023-06-10T08:28:48;22.20;99.90
3994;DHT22;2011;48.238;13.948;2023-06-10T08:31:17;22.30;99.90
3994;DHT22;2011;48.238;13.948;2023-06-10T08:33:44;22.30;99.90
3994;DHT22;2011;48.238;13.948;2023-06-10T08:36:10;22.30;99.90
3994;DHT22;2011;48.238;13.948;2023-06-10T08:38:38;22.30;99.90
3994;DHT22;2011;48.238;13.948;2023-06-10T08:41:05;22.40;99.90
3994;DHT22;2011;48.238;13.948;2023-06-10T08:43:36;22.50;99.90
3994;DHT22;2011;48.238;13.948;2023-06-10T08:46:04;22.50;99.90
3994;DHT22;2011;48.238;13.948;2023-06-10T08:48:42;22.50;99.90
3994;DHT22;2011;48.238;13.948;2023-06-10T08:51:10;22.60;99.90
3994;DHT22;2011;48.238;13.948;2023-06-10T08:53:42;22.70;99.90
3994;DHT22;2011;48.238;13.948;2023-06-10T08:56:14;22.70;99.90
3994;DHT22;2011;48.238;13.948;2023-06-10T08:58:42;22.50;99.90
3994;DHT22;2011;48.238;13.948;2023-06-10T09:01:09;22.50;99.90
3994;DHT22;2011;48.238;13.948;2023-06-10T09:03:40;22.50;99.90
3994;DHT22;2011;48.238;13.948;2023-06-10T09:06:08;22.50;99.90
3994;DHT22;2011;48.238;13.948;2023-06-10T09:08:35;22.50;99.90
3994;DHT22;2011;48.238;13.948;2023-06-10T09:11:02;22.60;99.90
3994;DHT22;2011;48.238;13.948;2023-06-10T09:13:29;22.50;99.90
3994;DHT22;2011;48.238;13.948;2023-06-10T09:15:56;22.50;99.90
3994;DHT22;2011;48.238;13.948;2023-06-10T09:18:26;22.40;99.90
3994;DHT22;2011;48.238;13.948;2023-06-10T09:20:55;22.40;99.90
3994;DHT22;2011;48.238;13.948;2023-06-10T09:23:22;22.40;99.90
3994;DHT22;2011;48.238;13.948;2023-06-10T09:25:56;22.40;99.90
3994;DHT22;2011;48.238;13.948;2023-06-10T09:28:24;22.50;99.90
3994;DHT22;2011;48.238;13.948;2023-06-10T09:31:02;22.60;99.90
3994;DHT22;2011;48.238;13.948;2023-06-10T09:33:29;22.80;99.90
3994;DHT22;2011;48.238;13.948;2023-06-10T09:35:57;23.40;99.90
3994;DHT22;2011;48.238;13.948;2023-06-10T09:38:30;23.90;99.90
3994;DHT22;2011;48.238;13.948;2023-06-10T09:40:57;24.20;99.90
3994;DHT22;2011;48.238;13.948;2023-06-10T09:43:38;24.10;99.90
3994;DHT22;2011;48.238;13.948;2023-06-10T09:46:05;24.00;99.90
3994;DHT22;2011;48.238;13.948;2023-06-10T09:48:35;23.90;99.90
3994;DHT22;2011;48.238;13.948;2023-06-10T09:51:10;23.80;99.90
3994;DHT22;2011;48.238;13.948;2023-06-10T09:53:37;23.70;99.90
3994;DHT22;2011;48.238;13.948;2023-06-10T09:56:04;23.60;99.90
3994;DHT22;2011;48.238;13.948;2023-06-10T09:58:35;23.70;99.90
3994;DHT22;2011;48.238;13.948;2023-06-10T10:01:06;23.70;99.90
3994;DHT22;2011;48.238;13.948;2023-06-10T10:03:33;23.70;99.90
3994;DHT22;2011;48.238;13.948;2023-06-10T10:06:00;23.70;99.90
3994;DHT22;2011;48.238;13.948;2023-06-10T10:08:28;24.10;99.90
3994;DHT22;2011;48.238;13.948;2023-06-10T10:10:57;24.00;99.90
3994;DHT22;2011;48.238;13.948;2023-06-10T10:13:26;23.90;99.90
3994;DHT22;2011;48.238;13.948;2023-06-10T10:15:55;23.90;99.90
3994;DHT22;2011;48.238;13.948;2023-06-10T10:18:24;23.90;99.90
3994;DHT22;2011;48.238;13.948;2023-06-10T10:20:54;23.80;99.90
3994;DHT22;2011;48.238;13.948;2023-06-10T10:23:24;23.70;99.90
3994;DHT22;2011;48.238;13.948;2023-06-10T10:25:55;23.90;99.90
3994;DHT22;2011;48.238;13.948;2023-06-10T10:28:24;24.40;99.90
3994;DHT22;2011;48.238;13.948;2023-06-10T10:30:59;24.30;99.90
3994;DHT22;2011;48.238;13.948;2023-06-10T10:33:31;24.20;99.90
3994;DHT22;2011;48.238;13.948;2023-06-10T10:36:00;24.10;99.90
3994;DHT22;2011;48.238;13.948;2023-06-10T10:38:28;24.00;99.90
3994;DHT22;2011;48.238;13.948;2023-06-10T10:40:57;23.90;99.90
3994;DHT22;2011;48.238;13.948;2023-06-10T10:43:25;23.90;99.90
3994;DHT22;2011;48.238;13.948;2023-06-10T10:45:58;23.90;99.90
3994;DHT22;2011;48.238;13.948;2023-06-10T10:48:26;23.90;99.90
3994;DHT22;2011;48.238;13.948;2023-06-10T10:50:56;23.90;99.90
3994;DHT22;2011;48.238;13.948;2023-06-10T10:53:24;24.10;99.90
3994;DHT22;2011;48.238;13.948;2023-06-10T10:56:04;24.10;99.90
3994;DHT22;2011;48.238;13.948;2023-06-10T10:58:31;24.20;99.90
3994;DHT22;2011;48.238;13.948;2023-06-10T11:00:58;24.20;99.90
3994;DHT22;2011;48.238;13.948;2023-06-10T11:03:28;24.10;99.90
3994;DHT22;2011;48.238;13.948;2023-06-10T11:05:57;24.10;99.90
3994;DHT22;2011;48.238;13.948;2023-06-10T11:08:46;24.00;99.90
3994;DHT22;2011;48.238;13.948;2023-06-10T11:11:22;23.90;99.90
3994;DHT22;2011;48.238;13.948;2023-06-10T11:14:06;23.90;99.90
3994;DHT22;2011;48.238;13.948;2023-06-10T11:16:39;24.00;99.90
3994;DHT22;2011;48.238;13.948;2023-06-10T11:19:07;24.10;99.90
3994;DHT22;2011;48.238;13.948;2023-06-10T11:21:51;24.30;99.90
3994;DHT22;2011;48.238;13.948;2023-06-10T11:24:23;24.50;99.90
3994;DHT22;2011;48.238;13.948;2023-06-10T11:26:53;24.90;99.90
3994;DHT22;2011;48.238;13.948;2023-06-10T11:29:19;25.20;99.90
3994;DHT22;2011;48.238;13.948;2023-06-10T11:31:49;25.40;99.90
3994;DHT22;2011;48.238;13.948;2023-06-10T11:34:22;25.40;99.90
3994;DHT22;2011;48.238;13.948;2023-06-10T11:36:51;25.40;99.90
3994;DHT22;2011;48.238;13.948;2023-06-10T11:39:20;25.20;99.90
3994;DHT22;2011;48.238;13.948;2023-06-10T11:41:49;25.00;99.90
3994;DHT22;2011;48.238;13.948;2023-06-10T11:44:18;24.90;99.90
3994;DHT22;2011;48.238;13.948;2023-06-10T11:46:48;24.60;99.90
3994;DHT22;2011;48.238;13.948;2023-06-10T11:49:15;24.40;99.90
3994;DHT22;2011;48.238;13.948;2023-06-10T11:51:42;24.20;99.90
3994;DHT22;2011;48.238;13.948;2023-06-10T11:54:15;24.00;99.90
3994;DHT22;2011;48.238;13.948;2023-06-10T11:56:43;23.90;99.90
3994;DHT22;2011;48.238;13.948;2023-06-10T11:59:09;23.50;99.90
3994;DHT22;2011;48.238;13.948;2023-06-10T12:01:42;23.20;99.90
3994;DHT22;2011;48.238;13.948;2023-06-10T12:04:10;23.10;99.90
3994;DHT22;2011;48.238;13.948;2023-06-10T12:06:39;22.90;99.90
3994;DHT22;2011;48.238;13.948;2023-06-10T12:09:06;22.70;99.90
3994;DHT22;2011;48.238;13.948;2023-06-10T12:11:33;22.50;99.90
3994;DHT22;2011;48.238;13.948;2023-06-10T12:14:01;22.50;99.90
3994;DHT22;2011;48.238;13.948;2023-06-10T12:16:29;22.40;99.90
3994;DHT22;2011;48.238;13.948;2023-06-10T12:19:03;22.30;99.90
3994;DHT22;2011;48.238;13.948;2023-06-10T12:21:31;22.20;99.90
3994;DHT22;2011;48.238;13.948;2023-06-10T12:24:06;22.20;99.90
3994;DHT22;2011;48.238;13.948;2023-06-10T12:26:53;22.30;99.90
3994;DHT22;2011;48.238;13.948;2023-06-10T12:29:22;22.10;99.90
3994;DHT22;2011;48.238;13.948;2023-06-10T12:31:57;21.90;99.90
3994;DHT22;2011;48.238;13.948;2023-06-10T12:34:35;21.80;99.90
3994;DHT22;2011;48.238;13.948;2023-06-10T12:37:04;21.80;99.90
3994;DHT22;2011;48.238;13.948;2023-06-10T12:39:32;21.80;99.90
3994;DHT22;2011;48.238;13.948;2023-06-10T12:42:00;21.90;99.90
3994;DHT22;2011;48.238;13.948;2023-06-10T12:44:30;22.00;99.90
3994;DHT22;2011;48.238;13.948;2023-06-10T12:46:57;22.20;99.90
3994;DHT22;2011;48.238;13.948;2023-06-10T12:49:24;22.40;99.90
3994;DHT22;2011;48.238;13.948;2023-06-10T12:51:53;22.70;99.90
3994;DHT22;2011;48.238;13.948;2023-06-10T12:54:20;22.80;99.90
3994;DHT22;2011;48.238;13.948;2023-06-10T12:56:47;23.00;99.90
3994;DHT22;2011;48.238;13.948;2023-06-10T12:59:14;23.00;99.90
3994;DHT22;2011;48.238;13.948;2023-06-10T13:01:41;23.00;99.90
3994;DHT22;2011;48.238;13.948;2023-06-10T13:04:08;23.10;99.90
3994;DHT22;2011;48.238;13.948;2023-06-10T13:06:35;23.10;99.90
3994;DHT22;2011;48.238;13.948;2023-06-10T13:09:05;23.10;99.90
3994;DHT22;2011;48.238;13.948;2023-06-10T13:11:34;23.10;99.90
3994;DHT22;2011;48.238;13.948;2023-06-10T13:14:02;23.20;99.90
3994;DHT22;2011;48.238;13.948;2023-06-10T13:16:30;23.20;99.90
3994;DHT22;2011;48.238;13.948;2023-06-10T13:18:57;23.20;99.90
3994;DHT22;2011;48.238;13.948;2023-06-10T13:21:24;23.20;99.90
3994;DHT22;2011;48.238;13.948;2023-06-10T13:23:51;23.10;99.90
3994;DHT22;2011;48.238;13.948;2023-06-10T13:26:20;23.10;99.90
3994;DHT22;2011;48.238;13.948;2023-06-10T13:28:47;23.00;99.90
3994;DHT22;2011;48.238;13.948;2023-06-10T13:31:14;23.00;99.90
3994;DHT22;2011;48.238;13.948;2023-06-10T13:33:41;22.90;99.90
3994;DHT22;2011;48.238;13.948;2023-06-10T13:36:09;22.90;99.90
3994;DHT22;2011;48.238;13.948;2023-06-10T13:38:37;22.90;99.90
3994;DHT22;2011;48.238;13.948;2023-06-10T13:41:04;22.80;99.90
3994;DHT22;2011;48.238;13.948;2023-06-10T13:43:32;22.80;99.90
3994;DHT22;2011;48.238;13.948;2023-06-10T13:45:59;22.80;99.90
3994;DHT22;2011;48.238;13.948;2023-06-10T13:48:27;22.80;99.90
3994;DHT22;2011;48.238;13.948;2023-06-10T13:50:54;22.80;99.90
3994;DHT22;2011;48.238;13.948;2023-06-10T13:53:21;22.80;99.90
3994;DHT22;2011;48.238;13.948;2023-06-10T13:55:48;22.90;99.90
3994;DHT22;2011;48.238;13.948;2023-06-10T13:58:15;22.90;99.90
3994;DHT22;2011;48.238;13.948;2023-06-10T14:00:43;22.90;99.90
3994;DHT22;2011;48.238;13.948;2023-06-10T14:03:11;22.90;99.90
3994;DHT22;2011;48.238;13.948;2023-06-10T14:05:38;22.90;99.90
3994;DHT22;2011;48.238;13.948;2023-06-10T14:08:05;22.90;99.90
3994;DHT22;2011;48.238;13.948;2023-06-10T14:10:32;22.80;99.90
3994;DHT22;2011;48.238;13.948;2023-06-10T14:12:59;22.70;99.90
3994;DHT22;2011;48.238;13.948;2023-06-10T14:15:26;22.60;99.90
3994;DHT22;2011;48.238;13.948;2023-06-10T14:17:55;22.60;99.90
3994;DHT22;2011;48.238;13.948;2023-06-10T14:20:22;22.60;99.90
3994;DHT22;2011;48.238;13.948;2023-06-10T14:22:51;22.60;99.90
3994;DHT22;2011;48.238;13.948;2023-06-10T14:25:18;22.60;99.90
3994;DHT22;2011;48.238;13.948;2023-06-10T14:27:45;22.60;99.90
3994;DHT22;2011;48.238;13.948;2023-06-10T14:30:14;22.50;99.90
3994;DHT22;2011;48.238;13.948;2023-06-10T14:32:41;22.50;99.90
3994;DHT22;2011;48.238;13.948;2023-06-10T14:35:10;22.50;99.90
3994;DHT22;2011;48.238;13.948;2023-06-10T14:37:37;22.60;99.90
3994;DHT22;2011;48.238;13.948;2023-06-10T14:40:05;22.50;99.90
3994;DHT22;2011;48.238;13.948;2023-06-10T14:42:32;22.60;99.90
3994;DHT22;2011;48.238;13.948;2023-06-10T14:44:59;22.70;99.90
3994;DHT22;2011;48.238;13.948;2023-06-10T14:47:26;22.70;99.90
3994;DHT22;2011;48.238;13.948;2023-06-10T14:49:53;22.70;99.90
3994;DHT22;2011;48.238;13.948;2023-06-10T14:52:22;22.80;99.90
3994;DHT22;2011;48.238;13.948;2023-06-10T14:54:49;22.80;99.90
3994;DHT22;2011;48.238;13.948;2023-06-10T14:57:16;22.80;99.90
3994;DHT22;2011;48.238;13.948;2023-06-10T14:59:43;22.80;99.90
3994;DHT22;2011;48.238;13.948;2023-06-10T15:02:10;22.80;99.90
3994;DHT22;2011;48.238;13.948;2023-06-10T15:04:37;22.90;99.90
3994;DHT22;2011;48.238;13.948;2023-06-10T15:07:04;22.90;99.90
3994;DHT22;2011;48.238;13.948;2023-06-10T15:09:33;22.90;99.90
3994;DHT22;2011;48.238;13.948;2023-06-10T15:12:00;23.00;99.90
3994;DHT22;2011;48.238;13.948;2023-06-10T15:14:27;23.10;99.90
3994;DHT22;2011;48.238;13.948;2023-06-10T15:16:54;23.20;99.90
3994;DHT22;2011;48.238;13.948;2023-06-10T15:19:23;23.40;99.90
3994;DHT22;2011;48.238;13.948;2023-06-10T15:21:50;23.60;99.90
3994;DHT22;2011;48.238;13.948;2023-06-10T15:24:18;23.70;99.90
3994;DHT22;2011;48.238;13.948;2023-06-10T15:26:46;23.70;99.90
3994;DHT22;2011;48.238;13.948;2023-06-10T15:29:13;23.70;99.90
3994;DHT22;2011;48.238;13.948;2023-06-10T15:31:40;23.70;99.90
3994;DHT22;2011;48.238;13.948;2023-06-10T15:34:07;23.60;99.90
3994;DHT22;2011;48.238;13.948;2023-06-10T15:36:34;23.60;99.90
3994;DHT22;2011;48.238;13.948;2023-06-10T15:39:04;23.50;99.90
3994;DHT22;2011;48.238;13.948;2023-06-10T15:41:32;23.50;99.90
3994;DHT22;2011;48.238;13.948;2023-06-10T15:44:01;23.50;99.90
3994;DHT22;2011;48.238;13.948;2023-06-10T15:46:28;23.40;99.90
3994;DHT22;2011;48.238;13.948;2023-06-10T15:48:56;23.40;99.90
3994;DHT22;2011;48.238;13.948;2023-06-10T15:51:23;23.30;99.90